Time;durP1;ratioP1;P1;durP2;ratioP2;P2;SDS_P1;SDS_P2;PMS_P1;PMS_P2;Temp;Humidity;BMP_temperature;BMP_pressure;BME280_temperature;BME280_humidity;BME280_pressure;Samples;Min_cycle;Max_cycle;Signal;HPM_P1;HPM_P2
2022/04/24 00:01:16;;;;;;;14.82;8.50;;;;;;;12.75;68.92;99966.78;4684826;30;20060;-77
2022/04/24 00:03:45;;;;;;;10.23;8.27;;;;;;;12.79;69.12;99977.22;4672109;30;20499;-77
2022/04/24 00:16:34;;;;;;;11.48;8.57;;;;;;;12.22;73.15;99992.97;4681233;30;20112;-77
2022/04/24 00:22:16;;;;;;;13.52;8.82;;;;;;;12.30;75.56;100009.53;4671334;30;20073;-77
2022/04/24 00:34:46;;;;;;;13.98;10.02;;;;;;;11.91;76.04;99995.13;4683506;30;20060;-77
2022/04/24 00:37:12;;;;;;;18.02;9.50;;;;;;;11.77;76.05;99979.50;4684810;30;20129;-77
2022/04/24 00:39:48;;;;;;;14.15;9.90;;;;;;;11.72;76.23;99991.81;4681605;30;20058;-77
2022/04/24 00:42:14;;;;;;;16.20;10.00;;;;;;;11.95;77.07;100021.38;4669130;30;20040;-77
2022/04/24 00:48:38;;;;;;;16.25;9.55;;;;;;;11.76;77.70;100004.06;4681442;30;20056;-78
2022/04/24 00:51:04;;;;;;;24.37;10.53;;;;;;;11.71;77.64;99985.72;4670962;30;20114;-77
2022/04/24 00:53:30;;;;;;;16.67;11.65;;;;;;;11.70;77.72;99993.59;4666152;30;20472;-78
2022/04/24 00:55:56;;;;;;;15.40;12.20;;;;;;;11.55;76.04;99982.38;4673978;30;20501;-77
2022/04/24 00:58:27;;;;;;;20.42;12.43;;;;;;;11.56;74.56;99986.72;4685333;30;20088;-76
2022/04/24 01:04:29;;;;;;;21.50;11.73;;;;;;;11.95;75.46;100031.91;4666151;30;20182;-76
2022/04/24 01:13:38;;;;;;;15.35;12.95;;;;;;;11.51;76.36;99987.69;4679573;30;20053;-75
2022/04/24 01:26:08;;;;;;;16.77;12.20;;;;;;;11.49;77.21;99990.31;4666523;30;20187;-76
2022/04/24 01:28:33;;;;;;;20.13;13.18;;;;;;;11.54;76.43;100017.44;4688643;30;20090;-76
2022/04/24 01:31:09;;;;;;;21.05;15.40;;;;;;;11.38;77.23;100008.81;4666070;30;20047;-76
2022/04/24 01:33:41;;;;;;;19.67;13.80;;;;;;;11.19;77.14;99995.00;4649728;30;20034;-76
2022/04/24 01:36:07;;;;;;;25.00;14.63;;;;;;;11.28;77.21;99994.03;4666245;30;20053;-76
2022/04/24 01:52:00;;;;;;;22.27;14.25;;;;;;;11.27;77.92;100015.06;4662415;30;20052;-76
2022/04/24 01:54:26;;;;;;;22.42;13.85;;;;;;;11.45;76.48;100046.44;4670989;30;20059;-76
2022/04/24 01:56:51;;;;;;;16.70;14.07;;;;;;;11.46;74.62;100042.03;4677953;30;20029;-76
2022/04/24 02:06:22;;;;;;;15.68;12.05;;;;;;;11.29;76.94;100039.56;4668825;30;20084;-75
2022/04/24 02:12:09;;;;;;;14.70;13.02;;;;;;;11.39;75.55;100023.69;4668197;30;20194;-75
2022/04/24 02:14:42;;;;;;;22.45;13.05;;;;;;;11.29;74.64;100026.44;4671112;30;20129;-75
2022/04/24 02:17:58;;;;;;;14.80;12.35;;;;;;;11.09;75.86;100027.47;4685767;30;20046;-75
2022/04/24 02:20:42;;;;;;;20.80;13.32;;;;;;;11.22;77.35;100045.75;4670823;30;20104;-75
2022/04/24 02:23:08;;;;;;;18.27;13.10;;;;;;;10.87;76.21;100029.41;4659979;30;20141;-75
2022/04/24 02:25:34;;;;;;;16.98;12.20;;;;;;;10.99;76.42;100031.06;4662508;30;20063;-75
2022/04/24 02:28:37;;;;;;;17.58;11.60;;;;;;;11.12;75.58;100058.97;4668231;30;20068;-75
2022/04/24 02:31:35;;;;;;;16.80;12.10;;;;;;;11.01;75.49;100033.69;4667253;30;20069;-76
2022/04/24 02:34:36;;;;;;;16.55;12.30;;;;;;;11.01;75.64;100052.94;4653065;30;20054;-75
2022/04/24 02:37:02;;;;;;;16.77;13.50;;;;;;;11.17;75.53;100069.44;4650617;30;20109;-75
2022/04/24 02:39:35;;;;;;;13.75;11.30;;;;;;;10.98;75.30;100052.97;4668380;30;20026;-75
2022/04/24 02:42:02;;;;;;;16.70;11.65;;;;;;;10.99;75.28;100063.44;4687110;30;20034;-75
2022/04/24 02:44:27;;;;;;;17.42;13.43;;;;;;;11.18;75.69;100064.16;4675337;30;20056;-76
2022/04/24 02:46:57;;;;;;;18.35;13.20;;;;;;;11.14;75.76;100058.94;4681462;30;20042;-74
2022/04/24 02:49:23;;;;;;;23.55;13.10;;;;;;;11.19;76.73;100059.75;4675704;30;20050;-75
2022/04/24 02:51:53;;;;;;;17.38;13.45;;;;;;;11.05;76.75;100059.00;4654508;30;20047;-75
2022/04/24 02:54:19;;;;;;;14.60;10.68;;;;;;;10.78;76.58;100053.94;4660717;30;20031;-76
2022/04/24 02:56:44;;;;;;;17.80;13.27;;;;;;;11.07;75.51;100083.50;4665687;30;20054;-76
2022/04/24 02:59:11;;;;;;;16.63;11.48;;;;;;;10.97;75.36;100056.44;4666588;30;20042;-76
2022/04/24 03:01:39;;;;;;;13.48;12.07;;;;;;;10.91;76.22;100051.22;4653911;30;20070;-76
2022/04/24 03:04:34;;;;;;;17.73;12.40;;;;;;;11.03;77.20;100069.53;4664216;30;20058;-76
2022/04/24 03:07:01;;;;;;;14.50;12.40;;;;;;;11.13;76.60;100086.09;4652882;30;20039;-76
2022/04/24 03:09:27;;;;;;;17.65;13.23;;;;;;;10.85;77.50;100057.41;4651911;30;20035;-76
2022/04/24 03:11:53;;;;;;;20.88;12.57;;;;;;;10.61;78.68;100058.44;4650850;30;20182;-76
2022/04/24 03:14:18;;;;;;;17.90;12.43;;;;;;;10.80;76.93;100081.94;4663354;30;20104;-76
2022/04/24 03:17:12;;;;;;;17.08;12.50;;;;;;;10.91;77.00;100098.47;4665965;30;20046;-76
2022/04/24 03:20:12;;;;;;;18.75;12.50;;;;;;;10.75;76.54;100102.97;4658061;30;20047;-76
2022/04/24 03:22:39;;;;;;;26.13;13.93;;;;;;;10.43;76.73;100085.63;4664220;30;20043;-76
2022/04/24 03:25:07;;;;;;;21.10;13.18;;;;;;;10.65;76.86;100120.53;4679753;30;20106;-76
2022/04/24 03:27:34;;;;;;;15.32;12.95;;;;;;;10.76;77.58;100121.31;4664997;30;20034;-76
2022/04/24 03:33:27;;;;;;;19.48;15.02;;;;;;;10.73;78.75;100117.84;4662232;30;20109;-76
2022/04/24 03:36:03;;;;;;;19.02;12.82;;;;;;;10.73;79.04;100110.84;4660585;30;20023;-76
2022/04/24 03:38:45;;;;;;;23.48;13.60;;;;;;;10.50;79.03;100089.09;4668985;30;20050;-76
2022/04/24 03:47:54;;;;;;;20.23;14.07;;;;;;;10.35;81.15;100108.41;4671979;30;20134;-76
2022/04/24 03:54:40;;;;;;;19.33;15.13;;;;;;;10.34;80.20;100106.66;4650907;30;20076;-76
2022/04/24 04:04:23;;;;;;;17.88;14.35;;;;;;;10.11;80.65;100096.22;4637155;30;20046;-76
2022/04/24 04:13:44;;;;;;;20.90;16.05;;;;;;;10.10;81.35;100149.53;4648499;30;20057;-76
2022/04/24 04:16:37;;;;;;;18.77;16.05;;;;;;;9.93;81.35;100132.09;4652528;30;20109;-76
2022/04/24 04:22:25;;;;;;;24.25;17.35;;;;;;;10.11;80.99;100135.53;4635862;30;20205;-76
2022/04/24 04:28:13;;;;;;;21.30;16.95;;;;;;;10.70;80.24;100165.97;4631765;30;20454;-76
2022/04/24 04:30:46;;;;;;;22.40;18.92;;;;;;;10.74;79.58;100165.06;4648209;30;20043;-76
2022/04/24 04:36:34;;;;;;;26.52;18.52;;;;;;;10.66;79.82;100126.63;4636455;30;20065;-76
2022/04/24 04:45:52;;;;;;;23.50;17.67;;;;;;;10.51;80.40;100159.94;4654787;30;20527;-77
2022/04/24 04:51:40;;;;;;;21.33;15.70;;;;;;;10.87;78.82;100138.78;4636113;30;20050;-76
2022/04/24 04:54:21;;;;;;;20.13;17.23;;;;;;;11.08;78.48;100162.28;4635121;31;20019;-77
2022/04/24 05:03:31;;;;;;;23.23;18.50;;;;;;;11.36;78.43;100169.97;4687010;30;20060;-76
2022/04/24 05:05:56;;;;;;;26.80;18.90;;;;;;;11.31;78.18;100172.63;4668954;30;20180;-77
2022/04/24 05:11:44;;;;;;;25.70;17.33;;;;;;;11.46;77.95;100203.16;4684335;30;20052;-77
2022/04/24 05:14:18;;;;;;;18.98;15.13;;;;;;;11.29;77.41;100160.41;4666745;30;20050;-76
2022/04/24 05:23:27;;;;;;;22.20;15.73;;;;;;;11.87;77.83;100201.09;4666869;30;20129;-76
2022/04/24 05:29:38;;;;;;;19.92;14.73;;;;;;;12.36;77.16;100206.81;4684266;30;20049;-76
2022/04/24 05:32:05;;;;;;;21.60;15.80;;;;;;;12.34;76.73;100194.53;4668256;30;20054;-76
2022/04/24 05:45:09;;;;;;;22.75;16.27;;;;;;;13.26;72.25;100169.66;4682397;30;20108;-76
2022/04/24 05:48:18;;;;;;;22.38;16.90;;;;;;;13.14;74.34;100212.88;4670533;30;20042;-76
2022/04/24 05:54:33;;;;;;;21.55;16.73;;;;;;;13.67;70.43;100176.97;4677291;30;20108;-76
2022/04/24 05:56:59;;;;;;;23.90;15.82;;;;;;;13.80;71.24;100204.00;4671126;30;20054;-76
2022/04/24 06:03:09;;;;;;;22.60;16.80;;;;;;;13.67;72.92;100189.25;4653141;30;20440;-77
2022/04/24 06:05:36;;;;;;;21.23;16.73;;;;;;;13.57;72.75;100195.56;4651545;30;20043;-76
2022/04/24 06:18:07;;;;;;;22.63;14.80;;;;;;;14.53;69.22;100187.72;4666550;30;20081;-77
2022/04/24 06:21:20;;;;;;;17.90;14.60;;;;;;;14.73;69.05;100196.13;4644673;30;20059;-76
2022/04/24 06:30:31;;;;;;;20.25;14.30;;;;;;;14.30;71.75;100182.88;4671087;30;20048;-77
2022/04/24 06:33:21;;;;;;;20.40;14.52;;;;;;;14.13;71.84;100197.25;4654680;30;20030;-77
2022/04/24 06:45:47;;;;;;;15.75;13.85;;;;;;;14.88;70.60;100213.44;4652847;30;20189;-77
2022/04/24 06:48:15;;;;;;;21.83;14.18;;;;;;;14.59;69.78;100174.44;4652940;30;20506;-77
2022/04/24 06:50:46;;;;;;;19.08;15.13;;;;;;;14.84;67.74;100190.63;4663984;30;20109;-77
2022/04/24 06:53:30;;;;;;;17.63;13.45;;;;;;;15.03;70.44;100211.38;4652028;30;20051;-77
2022/04/24 06:55:56;;;;;;;21.75;14.82;;;;;;;15.27;67.54;100225.84;4672979;30;20140;-76
2022/04/24 07:05:05;;;;;;;20.60;15.60;;;;;;;15.44;65.44;100210.44;4670788;30;20057;-77
2022/04/24 07:07:31;;;;;;;15.63;12.98;;;;;;;15.34;65.27;100190.41;4664944;30;20129;-77
2022/04/24 07:13:57;;;;;;;22.40;14.15;;;;;;;15.95;64.80;100201.31;4666148;30;20052;-77
2022/04/24 07:23:08;;;;;;;17.95;13.65;;;;;;;16.01;64.05;100186.16;4657663;30;20125;-76
2022/04/24 07:25:43;;;;;;;18.00;14.18;;;;;;;16.30;62.29;100210.13;4663026;30;20046;-75
2022/04/24 07:28:14;;;;;;;17.77;13.02;;;;;;;16.42;61.86;100226.53;4649797;30;20062;-76
2022/04/24 07:31:21;;;;;;;19.60;14.68;;;;;;;16.34;62.02;100219.69;4661773;30;20094;-75
2022/04/24 07:34:14;;;;;;;15.80;12.10;;;;;;;16.42;64.70;100223.03;4652298;30;20055;-76
2022/04/24 07:36:39;;;;;;;18.27;14.37;;;;;;;16.63;61.03;100201.22;4670005;30;20030;-76
2022/04/24 07:39:22;;;;;;;17.20;13.30;;;;;;;16.80;60.71;100219.31;4657187;30;20510;-76
2022/04/24 07:41:48;;;;;;;16.40;12.68;;;;;;;16.93;59.37;100216.31;4661809;30;20076;-76
2022/04/24 07:48:21;;;;;;;17.35;12.65;;;;;;;16.96;58.51;100182.63;4670226;30;20066;-74
2022/04/24 07:50:49;;;;;;;21.58;14.82;;;;;;;16.98;60.24;100190.56;4651622;30;20049;-74
2022/04/24 07:53:23;;;;;;;18.08;12.30;;;;;;;17.16;58.75;100199.72;4650842;30;20069;-73
2022/04/24 07:55:51;;;;;;;26.25;16.33;;;;;;;17.04;59.20;100193.00;4667787;30;20047;-74
2022/04/24 07:58:17;;;;;;;20.17;12.48;;;;;;;17.27;57.82;100187.88;4668807;30;20078;-72
2022/04/24 08:07:27;;;;;;;15.10;11.35;;;;;;;17.66;57.01;100216.72;4670289;30;20126;-73
2022/04/24 08:17:08;;;;;;;12.32;9.20;;;;;;;18.20;54.75;100200.81;4669409;30;20053;-73
2022/04/24 08:23:26;;;;;;;10.40;7.93;;;;;;;18.18;53.17;100192.88;4651333;30;20498;-74
2022/04/24 08:26:32;;;;;;;14.73;8.68;;;;;;;18.32;53.42;100193.25;4664562;30;20144;-74
2022/04/24 08:35:50;;;;;;;14.15;6.32;;;;;;;18.66;51.33;100197.38;4652927;30;20057;-76
2022/04/24 08:38:22;;;;;;;9.45;5.88;;;;;;;18.45;51.04;100176.88;4665553;30;20365;-75
2022/04/24 08:44:30;;;;;;;8.27;5.97;;;;;;;18.90;48.48;100198.25;4652550;30;20110;-74
2022/04/24 08:47:03;;;;;;;8.85;4.93;;;;;;;18.74;47.88;100173.16;4666855;30;20049;-74
2022/04/24 08:52:50;;;;;;;9.07;5.30;;;;;;;19.13;46.95;100160.16;4667265;30;20053;-76
2022/04/24 08:55:23;;;;;;;9.95;5.65;;;;;;;19.05;48.22;100158.72;4673357;30;20070;-75
2022/04/24 08:59:06;;;;;;;7.13;5.53;;;;;;;19.04;50.09;100149.00;4662237;30;20133;-75
2022/04/24 09:02:39;;;;;;;15.02;6.85;;;;;;;19.38;48.99;100144.03;4652923;30;20055;-75
2022/04/24 09:09:07;;;;;;;10.25;5.07;;;;;;;20.13;46.76;100164.00;4651399;30;20050;-75
2022/04/24 09:11:34;;;;;;;7.65;5.20;;;;;;;20.30;47.25;100176.63;4651219;30;20051;-76
2022/04/24 09:17:27;;;;;;;4.63;3.08;;;;;;;20.57;42.33;100158.53;4651383;30;20053;-76
2022/04/24 09:19:54;;;;;;;11.15;2.70;;;;;;;20.87;42.44;100150.06;4650550;30;20578;-75
2022/04/24 09:29:13;;;;;;;6.75;3.83;;;;;;;21.77;45.92;100171.53;4684443;30;20044;-75
2022/04/24 09:38:41;;;;;;;6.03;3.40;;;;;;;22.39;41.59;100136.34;4662861;30;20205;-75
2022/04/24 09:44:52;;;;;;;8.18;3.28;;;;;;;22.84;45.77;100140.97;4650146;30;20455;-74
2022/04/24 09:50:40;;;;;;;6.05;3.80;;;;;;;21.70;43.43;100104.22;4651420;30;20098;-76
2022/04/24 09:53:44;;;;;;;5.85;3.08;;;;;;;21.83;43.24;100103.59;4653545;30;20452;-76
2022/04/24 10:00:57;;;;;;;4.82;2.42;;;;;;;23.02;39.51;100109.69;4662340;30;20089;-76
2022/04/24 10:11:13;;;;;;;13.63;6.50;;;;;;;23.43;39.16;100087.69;4670690;30;20533;-77
2022/04/24 10:13:51;;;;;;;16.75;7.32;;;;;;;23.43;38.48;100090.38;4672421;30;20046;-76
2022/04/24 10:16:40;;;;;;;23.38;12.18;;;;;;;23.50;41.90;100110.47;4684355;30;20056;-75
2022/04/24 10:19:42;;;;;;;26.45;11.30;;;;;;;23.78;40.47;100069.53;4681823;30;20503;-75
2022/04/24 10:25:40;;;;;;;23.50;9.77;;;;;;;23.21;38.89;100084.56;4682212;30;20052;-75
2022/04/24 10:31:29;;;;;;;34.08;14.73;;;;;;;23.96;39.05;100110.47;4690737;30;20076;-75
2022/04/24 10:37:33;;;;;;;35.65;14.85;;;;;;;23.87;40.18;100080.69;4679984;30;20588;-76
2022/04/24 10:40:04;;;;;;;39.00;14.70;;;;;;;23.94;40.53;100100.78;4667732;30;20051;-76
2022/04/24 10:42:43;;;;;;;40.67;16.50;;;;;;;24.14;40.48;100108.50;4658231;30;20027;-76
2022/04/24 10:45:23;;;;;;;32.70;12.32;;;;;;;23.47;40.36;100075.84;4677778;30;20045;-76
2022/04/24 10:48:05;;;;;;;27.10;10.88;;;;;;;23.84;40.52;100075.50;4683796;30;20061;-76
2022/04/24 10:50:49;;;;;;;25.60;10.35;;;;;;;23.89;38.47;100111.78;4673728;30;20046;-76
2022/04/24 10:53:20;;;;;;;20.30;7.68;;;;;;;23.59;38.32;100101.91;4672993;30;20061;-76
2022/04/24 10:55:53;;;;;;;17.95;7.50;;;;;;;23.80;38.71;100074.81;4671018;30;20059;-76
2022/04/24 10:58:31;;;;;;;16.00;6.90;;;;;;;23.52;38.13;100071.06;4679088;30;20042;-76
2022/04/24 11:01:15;;;;;;;19.23;8.05;;;;;;;23.31;39.45;100089.25;4663721;30;20064;-76
2022/04/24 11:03:51;;;;;;;20.90;9.20;;;;;;;23.00;41.35;100066.09;4639919;30;20476;-76
2022/04/24 11:06:25;;;;;;;13.63;6.18;;;;;;;23.67;42.64;100071.13;4674093;30;20490;-76
2022/04/24 11:08:53;;;;;;;18.95;8.27;;;;;;;24.33;37.90;100096.63;4666753;30;20061;-75
2022/04/24 11:11:31;;;;;;;11.25;4.80;;;;;;;24.50;39.00;100095.59;4664123;30;20131;-76
2022/04/24 11:14:01;;;;;;;17.98;7.63;;;;;;;23.90;40.05;100056.34;4661833;30;20069;-76
2022/04/24 11:16:28;;;;;;;15.77;6.82;;;;;;;24.29;38.79;100087.91;4672060;30;20070;-76
2022/04/24 11:19:02;;;;;;;14.73;8.50;;;;;;;24.38;40.57;100065.00;4669065;30;20060;-76
2022/04/24 11:21:44;;;;;;;17.67;7.18;;;;;;;24.56;38.82;100087.13;4674025;30;20563;-76
2022/04/24 11:24:22;;;;;;;11.43;5.53;;;;;;;24.44;40.08;100089.63;4655046;30;20054;-76
2022/04/24 11:26:51;;;;;;;46.20;30.90;;;;;;;23.66;39.79;100058.69;4650918;30;20046;-76
2022/04/24 11:29:21;;;;;;;18.52;8.32;;;;;;;23.33;38.65;100055.22;4673558;30;20125;-76
2022/04/24 11:31:56;;;;;;;14.75;6.97;;;;;;;23.43;38.89;100076.13;4672867;30;20065;-76
2022/04/24 11:34:38;;;;;;;12.73;6.47;;;;;;;23.65;41.43;100038.19;4666855;30;20042;-76
2022/04/24 11:37:11;;;;;;;14.40;6.40;;;;;;;23.85;39.18;100078.06;4665853;30;20082;-76
2022/04/24 11:39:48;;;;;;;17.65;7.18;;;;;;;23.68;39.09;100030.00;4655988;30;20026;-76
2022/04/24 11:42:23;;;;;;;20.95;9.32;;;;;;;23.30;40.38;100035.81;4672978;30;20145;-76
2022/04/24 11:50:56;;;;;;;37.88;13.95;;;;;;;23.83;39.58;100066.59;4667073;30;20117;-76
2022/04/24 11:53:26;;;;;;;26.80;12.43;;;;;;;23.92;39.02;100047.28;4659458;30;20137;-76
2022/04/24 11:56:04;;;;;;;12.93;6.55;;;;;;;23.92;38.72;100049.94;4666973;30;20066;-76
2022/04/24 11:58:38;;;;;;;14.60;6.57;;;;;;;23.62;37.09;100015.13;4660188;30;20058;-76
2022/04/24 12:01:10;;;;;;;14.57;5.82;;;;;;;23.63;38.85;100024.06;4653971;30;20428;-76
2022/04/24 12:03:46;;;;;;;11.05;5.00;;;;;;;23.85;38.05;100029.84;4673929;30;20038;-76
2022/04/24 12:06:21;;;;;;;9.20;4.93;;;;;;;23.93;37.96;100042.78;4664875;30;20030;-76
2022/04/24 12:08:55;;;;;;;6.47;3.40;;;;;;;23.66;40.42;100018.50;4654193;30;20109;-76
2022/04/24 12:11:39;;;;;;;7.72;3.45;;;;;;;24.10;39.83;100041.75;4655762;30;20571;-76
2022/04/24 12:14:27;;;;;;;13.88;4.65;;;;;;;24.46;39.38;100048.41;4661428;30;20059;-76
2022/04/24 12:17:08;;;;;;;6.65;2.85;;;;;;;23.57;38.97;100019.91;4659049;30;20090;-76
2022/04/24 12:19:49;;;;;;;13.40;4.90;;;;;;;23.47;39.30;100053.56;4659653;30;20057;-76
2022/04/24 12:22:27;;;;;;;7.55;3.38;;;;;;;23.45;38.96;100042.94;4662264;30;20055;-76
2022/04/24 12:25:12;;;;;;;6.05;3.20;;;;;;;22.70;38.59;99999.09;4657183;30;20104;-76
2022/04/24 12:28:02;;;;;;;6.20;3.45;;;;;;;23.22;39.39;100001.44;4675357;30;20039;-76
2022/04/24 12:30:38;;;;;;;7.28;3.95;;;;;;;23.33;38.94;99992.78;4672737;30;20034;-76
2022/04/24 12:33:14;;;;;;;11.32;4.25;;;;;;;23.56;39.12;99991.41;4660371;30;20514;-76
2022/04/24 12:35:47;;;;;;;10.38;4.15;;;;;;;23.42;38.40;99999.44;4680077;30;20042;-76
2022/04/24 12:38:15;;;;;;;;;;;;;;;23.50;36.80;99973.03;4683141;30;20376;-76
2022/04/24 12:41:03;;;;;;;7.40;3.70;;;;;;;23.71;37.66;99992.28;4669150;30;20082;-76
2022/04/24 12:43:33;;;;;;;7.05;2.58;;;;;;;23.79;38.32;100022.19;4660413;30;20379;-76
2022/04/24 12:45:59;;;;;;;7.80;4.18;;;;;;;23.28;39.39;99993.06;4653819;30;20059;-76
2022/04/24 12:48:36;;;;;;;6.07;2.92;;;;;;;23.05;40.29;100005.13;4661422;30;20610;-76
2022/04/24 12:51:14;;;;;;;4.50;2.10;;;;;;;22.81;39.45;99985.97;4664004;30;20145;-76
2022/04/24 12:53:54;;;;;;;6.30;2.10;;;;;;;22.89;39.48;99983.72;4677257;30;20062;-76
2022/04/24 12:56:32;;;;;;;7.68;2.72;;;;;;;22.67;40.09;99986.78;4675906;30;20106;-76
2022/04/24 12:59:15;;;;;;;9.70;3.63;;;;;;;23.26;39.20;100008.34;4660025;30;20070;-76
2022/04/24 13:01:44;;;;;;;6.75;2.55;;;;;;;23.15;38.60;99963.47;4670974;30;20045;-76
2022/04/24 13:04:23;;;;;;;3.70;2.13;;;;;;;23.27;40.41;100004.75;4676739;30;20046;-76
2022/04/24 13:07:18;;;;;;;7.93;2.65;;;;;;;23.02;41.55;99949.13;4674162;30;20150;-76
2022/04/24 13:09:56;;;;;;;6.88;2.75;;;;;;;23.37;40.65;99989.00;4682716;30;20110;-76
2022/04/24 13:12:27;;;;;;;6.25;2.45;;;;;;;23.29;39.04;99989.44;4678833;30;20046;-76
2022/04/24 13:15:35;;;;;;;4.03;2.35;;;;;;;22.89;39.38;99980.19;4659057;30;20074;-76
2022/04/24 13:18:22;;;;;;;5.60;2.50;;;;;;;23.11;40.40;99974.47;4677111;30;20096;-76
2022/04/24 13:21:10;;;;;;;7.57;1.92;;;;;;;23.07;39.75;99956.88;4683171;30;20050;-76
2022/04/24 13:23:39;;;;;;;7.50;2.20;;;;;;;22.87;39.79;99948.16;4682520;30;20616;-76
2022/04/24 13:26:29;;;;;;;5.05;1.95;;;;;;;22.79;40.19;99949.56;4677564;30;20053;-76
2022/04/24 13:29:29;;;;;;;6.55;2.08;;;;;;;23.10;37.84;99946.84;4666097;30;20152;-76
2022/04/24 13:32:21;;;;;;;4.05;2.17;;;;;;;23.09;39.54;99949.63;4679382;30;20073;-76
2022/04/24 13:35:03;;;;;;;3.90;1.70;;;;;;;22.73;37.67;99956.13;4672033;30;20049;-75
2022/04/24 13:41:01;;;;;;;6.55;1.83;;;;;;;22.57;38.41;99939.22;4680581;30;20185;-75
2022/04/24 13:43:48;;;;;;;5.20;1.50;;;;;;;22.90;37.45;99973.91;4674567;30;20052;-76
2022/04/24 13:46:50;;;;;;;9.05;1.80;;;;;;;23.04;37.97;99949.00;4656791;30;20541;-76
2022/04/24 13:49:51;;;;;;;4.63;1.55;;;;;;;22.71;37.70;99941.97;4680536;30;20061;-75
2022/04/24 13:52:59;;;;;;;3.22;1.63;;;;;;;22.61;37.67;99936.28;4674095;30;20061;-75
2022/04/24 13:55:47;;;;;;;3.13;1.23;;;;;;;23.17;36.16;99950.00;4678862;30;20069;-76
2022/04/24 13:58:26;;;;;;;3.47;1.90;;;;;;;23.17;37.36;99956.22;4677048;30;20088;-76
2022/04/24 14:01:13;;;;;;;4.57;1.40;;;;;;;22.81;38.74;99928.94;4664936;30;20061;-75
2022/04/24 14:04:00;;;;;;;4.05;1.48;;;;;;;22.72;39.53;99949.91;4677884;30;20038;-75
2022/04/24 14:07:13;;;;;;;3.22;1.50;;;;;;;22.84;38.24;99952.84;4672616;30;20050;-75
2022/04/24 14:10:03;;;;;;;3.67;1.00;;;;;;;22.93;36.80;99929.06;4667635;30;20054;-75
2022/04/24 14:12:37;;;;;;;9.20;2.05;;;;;;;23.04;38.93;99917.78;4682257;30;20487;-75
2022/04/24 14:15:32;;;;;;;6.53;1.70;;;;;;;23.01;36.28;99907.22;4674368;30;20083;-77
2022/04/24 14:18:20;;;;;;;2.67;1.38;;;;;;;23.08;37.41;99939.84;4651251;30;20138;-75
2022/04/24 14:21:01;;;;;;;6.65;1.30;;;;;;;22.77;36.80;99899.69;4677066;30;20555;-75
2022/04/24 14:23:40;;;;;;;4.05;1.45;;;;;;;23.19;36.83;99953.47;4678534;30;20131;-75
2022/04/24 14:26:42;;;;;;;3.25;1.65;;;;;;;22.80;35.90;99909.34;4675233;30;20510;-77
2022/04/24 14:29:13;;;;;;;4.72;1.15;;;;;;;22.86;36.53;99905.44;4677685;30;20053;-77
2022/04/24 14:32:01;;;;;;;4.18;1.52;;;;;;;22.84;36.62;99908.22;4673003;30;20047;-75
2022/04/24 14:35:02;;;;;;;4.00;1.98;;;;;;;22.77;37.38;99885.44;4670646;30;20037;-75
2022/04/24 14:37:37;;;;;;;3.67;1.33;;;;;;;23.06;38.37;99931.03;4658211;30;20380;-75
2022/04/24 14:40:15;;;;;;;3.40;1.75;;;;;;;22.95;38.46;99929.00;4673694;30;20135;-76
2022/04/24 14:43:04;;;;;;;4.75;1.90;;;;;;;23.19;37.32;99929.38;4682836;30;20057;-76
2022/04/24 14:57:30;;;;;;;3.78;1.75;;;;;;;22.63;39.73;99931.72;4661224;30;20156;-75
2022/04/24 15:00:15;;;;;;;4.72;1.73;;;;;;;22.48;38.45;99897.84;4676641;30;20066;-76
2022/04/24 15:03:12;;;;;;;3.17;1.75;;;;;;;22.55;39.76;99926.81;4680338;30;20507;-76
2022/04/24 15:05:59;;;;;;;4.95;1.98;;;;;;;22.85;38.65;99941.16;4681612;30;20146;-76
2022/04/24 15:08:58;;;;;;;3.70;1.98;;;;;;;22.57;38.75;99891.09;4680635;30;20594;-76
2022/04/24 15:11:25;;;;;;;7.88;2.05;;;;;;;22.87;38.25;99913.38;4679412;30;20049;-76
2022/04/24 15:14:13;;;;;;;4.72;2.35;;;;;;;22.73;38.55;99911.53;4668607;30;20511;-76
2022/04/24 15:17:11;;;;;;;7.78;2.17;;;;;;;22.64;37.59;99865.72;4676408;30;20144;-76
2022/04/24 15:20:07;;;;;;;6.47;2.78;;;;;;;22.65;37.78;99881.69;4677668;30;20075;-76
2022/04/24 15:22:48;;;;;;;3.85;1.92;;;;;;;22.94;37.40;99901.38;4678475;30;20053;-76
2022/04/24 15:25:19;;;;;;;14.70;2.13;;;;;;;22.64;39.62;99913.84;4673212;30;20109;-76
2022/04/24 15:28:00;;;;;;;4.80;2.00;;;;;;;22.54;39.28;99900.16;4660586;30;20499;-76
2022/04/24 15:31:01;;;;;;;6.90;1.63;;;;;;;22.41;39.80;99883.97;4678226;30;20035;-76
2022/04/24 15:33:51;;;;;;;6.88;1.65;;;;;;;22.64;39.66;99913.84;4676456;30;20069;-76
2022/04/24 15:36:26;;;;;;;5.75;2.33;;;;;;;22.09;39.06;99833.19;4678336;30;20467;-75
2022/04/24 15:38:57;;;;;;;6.22;2.15;;;;;;;22.50;39.39;99888.78;4667166;30;20475;-76
2022/04/24 15:41:37;;;;;;;7.00;3.03;;;;;;;22.53;40.02;99906.47;4683506;30;20053;-75
2022/04/24 15:45:10;;;;;;;10.35;2.25;;;;;;;22.29;39.29;99890.88;4675173;30;21023;-75
2022/04/24 15:47:24;;;;;;;6.28;2.72;;;;;;;22.35;38.77;99870.94;4671361;30;20053;-76
2022/04/24 15:50:08;;;;;;;7.68;2.38;;;;;;;22.48;39.26;99904.06;4673725;30;20537;-76
2022/04/24 15:52:52;;;;;;;4.30;1.80;;;;;;;22.53;38.03;99863.69;4674252;30;20060;-75
2022/04/24 15:55:38;;;;;;;6.55;2.47;;;;;;;22.61;38.64;99882.81;4679432;30;20112;-77
2022/04/24 15:58:09;;;;;;;11.52;2.67;;;;;;;22.25;40.11;99864.41;4675770;30;20421;-75
2022/04/24 16:00:34;;;;;;;3.17;1.60;;;;;;;22.25;40.24;99867.94;4654665;30;20050;-75
2022/04/24 16:03:01;;;;;;;4.38;2.00;;;;;;;22.22;38.98;99852.09;4657277;30;20468;-76
2022/04/24 16:05:27;;;;;;;3.50;1.70;;;;;;;22.49;39.20;99880.84;4656283;30;20050;-75
2022/04/24 16:07:57;;;;;;;6.70;2.53;;;;;;;22.26;39.88;99863.47;4655237;30;20121;-75
2022/04/24 16:10:24;;;;;;;3.65;1.55;;;;;;;22.23;41.57;99872.53;4657719;30;20079;-75
2022/04/24 16:12:50;;;;;;;8.25;2.08;;;;;;;21.95;42.54;99848.28;4655498;30;20043;-75
2022/04/24 16:15:15;;;;;;;3.67;1.80;;;;;;;22.03;42.08;99854.03;4661694;30;20109;-74
2022/04/24 16:17:42;;;;;;;4.07;2.35;;;;;;;22.02;41.78;99846.97;4657728;30;20054;-74
2022/04/24 16:20:09;;;;;;;10.68;2.10;;;;;;;21.95;42.23;99856.28;4652912;30;20480;-74
2022/04/24 16:22:34;;;;;;;6.05;3.67;;;;;;;22.10;42.42;99883.03;4650822;30;20080;-74
2022/04/24 16:25:01;;;;;;;7.40;3.67;;;;;;;21.91;42.63;99847.56;4670057;30;20117;-73
2022/04/24 16:27:28;;;;;;;5.70;2.90;;;;;;;21.72;42.72;99831.72;4673525;30;20081;-73
2022/04/24 16:29:56;;;;;;;5.53;2.78;;;;;;;21.70;42.91;99837.16;4664254;30;20046;-73
2022/04/24 16:32:29;;;;;;;6.35;2.85;;;;;;;21.69;42.70;99846.09;4664912;30;20047;-74
2022/04/24 16:34:59;;;;;;;5.55;3.03;;;;;;;21.84;42.97;99889.78;4660345;30;20058;-73
2022/04/24 16:37:28;;;;;;;5.35;2.70;;;;;;;21.64;42.88;99847.31;4664028;30;20051;-73
2022/04/24 16:39:54;;;;;;;6.43;2.92;;;;;;;21.79;42.74;99856.28;4665283;30;20377;-73
2022/04/24 16:42:27;;;;;;;4.78;2.75;;;;;;;21.73;42.88;99845.94;4660394;30;20043;-74
2022/04/24 16:44:53;;;;;;;7.68;3.17;;;;;;;21.86;42.94;99879.88;4651966;30;20062;-74
2022/04/24 16:47:19;;;;;;;4.85;1.70;;;;;;;21.57;43.92;99860.13;4659519;30;20494;-74
2022/04/24 16:49:45;;;;;;;8.93;2.72;;;;;;;21.41;44.85;99859.25;4639995;30;20461;-75
2022/04/24 17:00:24;;;;;;;10.10;3.60;;;;;;;21.05;46.00;99857.56;4669046;30;20080;-74
2022/04/24 17:02:52;;;;;;;10.57;3.25;;;;;;;21.00;46.29;99880.91;4655770;30;20058;-77
2022/04/24 17:05:17;;;;;;;8.02;3.97;;;;;;;21.05;46.26;99885.09;4670524;30;20062;-75
2022/04/24 17:07:44;;;;;;;7.35;4.53;;;;;;;20.96;46.96;99884.72;4650049;30;20517;-74
2022/04/24 17:10:11;;;;;;;11.57;4.20;;;;;;;20.58;48.36;99853.72;4669068;30;20074;-74
2022/04/24 17:12:38;;;;;;;13.48;4.70;;;;;;;20.48;50.07;99865.72;4640989;30;20049;-74
2022/04/24 17:15:04;;;;;;;17.85;6.35;;;;;;;20.44;49.97;99877.50;4653415;30;20403;-74
2022/04/24 17:17:30;;;;;;;11.38;6.63;;;;;;;20.50;50.27;99868.31;4680840;30;20054;-74
2022/04/24 17:19:56;;;;;;;11.95;5.65;;;;;;;20.36;50.19;99871.66;4673717;30;20065;-74
2022/04/24 17:22:21;;;;;;;9.80;5.18;;;;;;;20.51;49.76;99870.94;4672284;30;20499;-75